CSAV Lonquen — A8OT2 — position and weather

sailwx.info

Track history (hours):
 
Tides and Currents Weather Stations Pressure Air Temp Water Temp Dewpoint Dewpoint Depression Visibility Wind Speed Wind Dir Waves Ship Positions

CSAV Lonquen

Last reported at 2014-Aug-31 16:08 UTC. Time now 2014-Sep-01 18:37 UTC.
Position N 31°10' E 029°51'.

Length 261 m; draft 9.6 m.

Type: Ship (hazmat cat A). MMSI: 636091501.

Date/timePositionNaut miles runAvg speedWind from/ knotsBaromVisibWave heightAir tempDewpointWater temp
2014-Aug-31 16:08N 31°10' E 029°51'93 9.7
2014-Aug-31 06:34N 32°25' E 030°56'3110.0
2014-Aug-31 03:28N 32°48' E 031°20'1110.4
2014-Aug-31 02:25N 32°56' E 031°28'1010.5
2014-Aug-31 01:27N 33°03' E 031°36'910.4
2014-Aug-31 00:34N 33°11' E 031°43'10 9.8
2014-Aug-30 23:34N 33°18' E 031°51'1010.1
2014-Aug-30 22:33N 33°25' E 031°59'1010.3
2014-Aug-30 21:34N 33°33' E 032°07'1110.6
2014-Aug-30 20:33N 33°41' E 032°16'1110.6
2014-Aug-30 19:34N 33°49' E 032°24'1111.0
2014-Aug-30 18:34N 33°57' E 032°33'1110.5
2014-Aug-30 17:33N 34°05' E 032°41'10 9.7
2014-Aug-30 16:34N 34°13' E 032°49'10 9.6
2014-Aug-30 15:34N 34°20' E 032°56'10 9.5
2014-Aug-30 14:33N 34°27' E 033°04'9 8.8
2014-Aug-30 13:33N 34°36' E 033°06'6 5.6
2014-Aug-30 12:33N 34°39' E 033°01'0 0.0
2014-Aug-30 11:33N 34°39' E 033°01'0 0.0
2014-Aug-30 10:33N 34°39' E 033°01'0 0.0
2014-Aug-30 09:33N 34°39' E 033°01'0 0.0
2014-Aug-30 08:33N 34°39' E 033°01'0 0.0
2014-Aug-30 07:33N 34°39' E 033°01'0 0.0
2014-Aug-30 06:33N 34°39' E 033°01'0 0.0
2014-Aug-30 05:33N 34°39' E 033°01'0 0.0
2014-Aug-30 04:33N 34°39' E 033°01'0 0.3
2014-Aug-30 03:33N 34°39' E 033°01'2 1.9
2014-Aug-30 02:31N 34°40' E 033°03'0 0.1
2014-Aug-30 01:28N 34°40' E 033°03'0 0.0
2014-Aug-30 00:28N 34°40' E 033°03'0 0.0
2014-Aug-29 23:31N 34°40' E 033°03'0 0.0
2014-Aug-29 22:31N 34°40' E 033°03'0 0.0
2014-Aug-29 20:19N 34°39' E 033°04'0 0.1
2014-Aug-29 19:31N 34°39' E 033°04'0 0.0
2014-Aug-29 17:31N 34°40' E 033°04'0 0.0
2014-Aug-29 16:31N 34°40' E 033°04'0 0.0
2014-Aug-29 15:31N 34°40' E 033°04'0 0.0
2014-Aug-29 14:31N 34°40' E 033°04'0 0.0
2014-Aug-29 13:31N 34°40' E 033°04'0 0.0
2014-Aug-29 12:31N 34°40' E 033°04'0 0.0
2014-Aug-29 11:31N 34°40' E 033°04'0 0.0
2014-Aug-29 10:31N 34°40' E 033°04'0 0.0
2014-Aug-29 09:34N 34°40' E 033°04'0 0.2
2014-Aug-29 08:34N 34°40' E 033°03'1 0.7
2014-Aug-29 07:33N 34°39' E 033°04'8 8.2
2014-Aug-29 06:34N 34°31' E 033°08'1010.0
2014-Aug-29 05:33N 34°23' E 033°13'1110.0
2014-Aug-29 04:29N 34°13' E 033°19'1010.1
2014-Aug-29 03:30N 34°04' E 033°24'2010.1
2014-Aug-29 01:33N 33°46' E 033°34'1010.0
2014-Aug-29 00:33N 33°37' E 033°39'1210.0
2014-Aug-28 23:22N 33°27' E 033°46'8 9.8
2014-Aug-28 22:33N 33°19' E 033°50'48 2.2
2014-Aug-28 00:20N 32°56' E 034°40'5614.9
2014-Aug-27 20:33N 33°06' E 033°34'2115.5
2014-Aug-27 19:13N 33°09' E 033°09'1515.4
2014-Aug-27 18:14N 33°12' E 032°51'1015.4
2014-Aug-27 17:33N 33°13' E 032°39'1615.5
2014-Aug-27 16:33N 33°16' E 032°21'1615.3
2014-Aug-27 15:32N 33°19' E 032°03'1515.2
2014-Aug-27 14:33N 33°21' E 031°45'1515.0
2014-Aug-27 13:33N 33°24' E 031°27'6315.3
2014-Aug-27 09:27N 33°34' E 030°13'1516.2
2014-Aug-27 08:33N 33°37' E 029°56'2016.6
2014-Aug-27 07:22N 33°40' E 029°33'12717.3
2014-Aug-27 00:04N 34°02' E 027°03'1017.1
2014-Aug-26 23:28N 34°04' E 026°51'59118.0
2014-Aug-25 14:33N 35°42' E 015°00'2118.1
2014-Aug-25 13:22N 35°48' E 014°35'2 0.2
2014-Aug-25 05:31N 35°49' E 014°32'4 4.7
2014-Aug-25 04:33N 35°45' E 014°36'2 1.8
2014-Aug-25 03:33N 35°44' E 014°34'1312.9
2014-Aug-25 02:34N 35°45' E 014°19'3415.2
2014-Aug-25 00:20N 36°04' E 013°44'1316.4
2014-Aug-24 23:34N 36°11' E 013°31'1716.7
2014-Aug-24 22:33N 36°20' E 013°14'1716.7
2014-Aug-24 21:34N 36°30' E 012°57'1616.2
2014-Aug-24 20:33N 36°39' E 012°40'1916.0
2014-Aug-24 19:21N 36°50' E 012°20'1516.3
2014-Aug-24 18:24N 36°58' E 012°04'1516.1
2014-Aug-24 17:28N 37°06' E 011°48'3015.8
2014-Aug-24 15:33N 37°20' E 011°14'1615.9
2014-Aug-24 14:34N 37°26' E 010°56'1616.3
2014-Aug-24 13:33N 37°31' E 010°36'1616.0
2014-Aug-24 12:34N 37°33' E 010°16'1916.0
2014-Aug-24 11:23N 37°31' E 009°52'1416.0
2014-Aug-24 10:31N 37°27' E 009°36'1715.9
2014-Aug-24 09:29N 37°23' E 009°16'55516.1
2014-Aug-22 23:05N 36°22' W 002°13'1115.5
2014-Aug-22 22:21N 36°21' W 002°27'1315.8
2014-Aug-22 21:33N 36°20' W 002°43'1815.6
2014-Aug-22 20:24N 36°16' W 003°05'10917.5
2014-Aug-22 14:11N 35°59' W 005°18'11016.5
2014-Aug-22 07:32N 36°11' W 007°33'6916.3
2014-Aug-22 03:18N 36°28' W 008°56'15315.5
2014-Aug-21 17:28N 38°50' W 010°07'  
Track history (hours):
 
Tides and Currents Weather Stations Pressure Air Temp Water Temp Dewpoint Dewpoint Depression Visibility Wind Speed Wind Dir Waves Ship Positions

CSAV Lonquen

Last reported at 2014-Aug-31 16:08 UTC. Time now 2014-Sep-01 18:37 UTC.
Position N 31°10' E 029°51'.

Length 261 m; draft 9.6 m.

Type: Ship (hazmat cat A). MMSI: 636091501.

Date/timePositionNaut miles runAvg speedWind from/ knotsBaromVisibWave heightAir tempDewpointWater temp
2014-Aug-31 16:08N 31°10' E 029°51'93 9.7
2014-Aug-31 06:34N 32°25' E 030°56'3110.0
2014-Aug-31 03:28N 32°48' E 031°20'1110.4
2014-Aug-31 02:25N 32°56' E 031°28'1010.5
2014-Aug-31 01:27N 33°03' E 031°36'910.4
2014-Aug-31 00:34N 33°11' E 031°43'10 9.8
2014-Aug-30 23:34N 33°18' E 031°51'1010.1
2014-Aug-30 22:33N 33°25' E 031°59'1010.3
2014-Aug-30 21:34N 33°33' E 032°07'1110.6
2014-Aug-30 20:33N 33°41' E 032°16'1110.6
2014-Aug-30 19:34N 33°49' E 032°24'1111.0
2014-Aug-30 18:34N 33°57' E 032°33'1110.5
2014-Aug-30 17:33N 34°05' E 032°41'10 9.7
2014-Aug-30 16:34N 34°13' E 032°49'10 9.6
2014-Aug-30 15:34N 34°20' E 032°56'10 9.5
2014-Aug-30 14:33N 34°27' E 033°04'9 8.8
2014-Aug-30 13:33N 34°36' E 033°06'6 5.6
2014-Aug-30 12:33N 34°39' E 033°01'0 0.0
2014-Aug-30 11:33N 34°39' E 033°01'0 0.0
2014-Aug-30 10:33N 34°39' E 033°01'0 0.0
2014-Aug-30 09:33N 34°39' E 033°01'0 0.0
2014-Aug-30 08:33N 34°39' E 033°01'0 0.0
2014-Aug-30 07:33N 34°39' E 033°01'0 0.0
2014-Aug-30 06:33N 34°39' E 033°01'0 0.0
2014-Aug-30 05:33N 34°39' E 033°01'0 0.0
2014-Aug-30 04:33N 34°39' E 033°01'0 0.3
2014-Aug-30 03:33N 34°39' E 033°01'2 1.9
2014-Aug-30 02:31N 34°40' E 033°03'0 0.1
2014-Aug-30 01:28N 34°40' E 033°03'0 0.0
2014-Aug-30 00:28N 34°40' E 033°03'0 0.0
2014-Aug-29 23:31N 34°40' E 033°03'0 0.0
2014-Aug-29 22:31N 34°40' E 033°03'0 0.0
2014-Aug-29 20:19N 34°39' E 033°04'0 0.1
2014-Aug-29 19:31N 34°39' E 033°04'0 0.0
2014-Aug-29 17:31N 34°40' E 033°04'0 0.0
2014-Aug-29 16:31N 34°40' E 033°04'0 0.0
2014-Aug-29 15:31N 34°40' E 033°04'0 0.0
2014-Aug-29 14:31N 34°40' E 033°04'0 0.0
2014-Aug-29 13:31N 34°40' E 033°04'0 0.0
2014-Aug-29 12:31N 34°40' E 033°04'0 0.0
2014-Aug-29 11:31N 34°40' E 033°04'0 0.0
2014-Aug-29 10:31N 34°40' E 033°04'0 0.0
2014-Aug-29 09:34N 34°40' E 033°04'0 0.2
2014-Aug-29 08:34N 34°40' E 033°03'1 0.7
2014-Aug-29 07:33N 34°39' E 033°04'8 8.2
2014-Aug-29 06:34N 34°31' E 033°08'1010.0
2014-Aug-29 05:33N 34°23' E 033°13'1110.0
2014-Aug-29 04:29N 34°13' E 033°19'1010.1
2014-Aug-29 03:30N 34°04' E 033°24'2010.1
2014-Aug-29 01:33N 33°46' E 033°34'1010.0
2014-Aug-29 00:33N 33°37' E 033°39'1210.0
2014-Aug-28 23:22N 33°27' E 033°46'8 9.8
2014-Aug-28 22:33N 33°19' E 033°50'48 2.2
2014-Aug-28 00:20N 32°56' E 034°40'5614.9
2014-Aug-27 20:33N 33°06' E 033°34'2115.5
2014-Aug-27 19:13N 33°09' E 033°09'1515.4
2014-Aug-27 18:14N 33°12' E 032°51'1015.4
2014-Aug-27 17:33N 33°13' E 032°39'1615.5
2014-Aug-27 16:33N 33°16' E 032°21'1615.3
2014-Aug-27 15:32N 33°19' E 032°03'1515.2
2014-Aug-27 14:33N 33°21' E 031°45'1515.0
2014-Aug-27 13:33N 33°24' E 031°27'6315.3
2014-Aug-27 09:27N 33°34' E 030°13'1516.2
2014-Aug-27 08:33N 33°37' E 029°56'2016.6
2014-Aug-27 07:22N 33°40' E 029°33'12717.3
2014-Aug-27 00:04N 34°02' E 027°03'1017.1
2014-Aug-26 23:28N 34°04' E 026°51'59118.0
2014-Aug-25 14:33N 35°42' E 015°00'2118.1
2014-Aug-25 13:22N 35°48' E 014°35'2 0.2
2014-Aug-25 05:31N 35°49' E 014°32'4 4.7
2014-Aug-25 04:33N 35°45' E 014°36'2 1.8
2014-Aug-25 03:33N 35°44' E 014°34'1312.9
2014-Aug-25 02:34N 35°45' E 014°19'3415.2
2014-Aug-25 00:20N 36°04' E 013°44'1316.4
2014-Aug-24 23:34N 36°11' E 013°31'1716.7
2014-Aug-24 22:33N 36°20' E 013°14'1716.7
2014-Aug-24 21:34N 36°30' E 012°57'1616.2
2014-Aug-24 20:33N 36°39' E 012°40'1916.0
2014-Aug-24 19:21N 36°50' E 012°20'1516.3
2014-Aug-24 18:24N 36°58' E 012°04'1516.1
2014-Aug-24 17:28N 37°06' E 011°48'3015.8
2014-Aug-24 15:33N 37°20' E 011°14'1615.9
2014-Aug-24 14:34N 37°26' E 010°56'1616.3
2014-Aug-24 13:33N 37°31' E 010°36'1616.0
2014-Aug-24 12:34N 37°33' E 010°16'1916.0
2014-Aug-24 11:23N 37°31' E 009°52'1416.0
2014-Aug-24 10:31N 37°27' E 009°36'1715.9
2014-Aug-24 09:29N 37°23' E 009°16'55516.1
2014-Aug-22 23:05N 36°22' W 002°13'1115.5
2014-Aug-22 22:21N 36°21' W 002°27'1315.8
2014-Aug-22 21:33N 36°20' W 002°43'1815.6
2014-Aug-22 20:24N 36°16' W 003°05'10917.5
2014-Aug-22 14:11N 35°59' W 005°18'11016.5
2014-Aug-22 07:32N 36°11' W 007°33'6916.3
2014-Aug-22 03:18N 36°28' W 008°56'15315.5
2014-Aug-21 17:28N 38°50' W 010°07'  

Dump ship's entire track history